createdAt,value
2023-07-05T00:00:10.997Z,98.54
2023-07-05T00:01:13.158Z,98.30
2023-07-05T00:02:10.945Z,98.80
2023-07-05T00:03:10.886Z,98.80
2023-07-05T00:04:10.891Z,98.39
2023-07-05T00:05:10.902Z,98.80
2023-07-05T00:06:10.809Z,98.70
2023-07-05T00:07:10.764Z,98.91
2023-07-05T00:08:10.754Z,99.62
2023-07-05T00:09:10.695Z,99.41
2023-07-05T00:10:15.605Z,99.21
2023-07-05T00:11:10.733Z,99.21
2023-07-05T00:12:11.103Z,99.31
2023-07-05T00:13:10.666Z,99.56
2023-07-05T00:14:10.572Z,99.26
2023-07-05T00:15:10.558Z,98.80
2023-07-05T00:16:10.504Z,98.80
2023-07-05T00:17:10.454Z,99.31
2023-07-05T00:18:10.423Z,99.62
2023-07-05T00:19:10.465Z,99.41
2023-07-05T00:20:10.391Z,99.16
2023-07-05T00:21:10.326Z,99.46
2023-07-05T00:22:10.295Z,99.66
2023-07-05T00:23:10.270Z,98.50
2023-07-05T00:24:10.300Z,98.09
2023-07-05T00:25:10.202Z,98.39
2023-07-05T00:26:10.164Z,97.28
2023-07-05T00:27:10.136Z,96.97
2023-07-05T00:28:12.608Z,96.67
2023-07-05T00:29:10.224Z,96.56
2023-07-05T00:30:10.042Z,96.15
2023-07-05T00:31:10.108Z,96.26
2023-07-05T00:32:09.976Z,96.67
2023-07-05T00:33:09.991Z,97.17
2023-07-05T00:34:09.991Z,98.19
2023-07-05T00:35:09.878Z,97.07
2023-07-05T00:36:09.878Z,97.28
2023-07-05T00:37:09.836Z,96.87
2023-07-05T00:38:09.795Z,97.07
2023-07-05T00:39:09.787Z,98.30
2023-07-05T00:40:09.796Z,97.99
2023-07-05T00:41:09.696Z,98.30
2023-07-05T00:42:09.681Z,98.60
2023-07-05T00:43:09.652Z,98.39
2023-07-05T00:44:09.675Z,98.39
2023-07-05T00:45:09.582Z,98.39
2023-07-05T00:46:09.653Z,98.09
2023-07-05T00:47:09.513Z,98.91
2023-07-05T00:48:09.492Z,98.70
2023-07-05T00:49:09.448Z,98.39
2023-07-05T00:50:09.457Z,99.01
2023-07-05T00:51:09.388Z,98.80
2023-07-05T00:52:09.415Z,99.11
2023-07-05T00:53:09.330Z,98.91
2023-07-05T00:54:09.293Z,99.01
2023-07-05T00:55:09.261Z,98.39
2023-07-05T00:56:09.237Z,97.99
2023-07-05T00:57:09.194Z,97.38
2023-07-05T00:58:09.236Z,96.97
2023-07-05T00:59:09.210Z,97.07
2023-07-05T01:00:09.099Z,96.97
2023-07-05T01:01:09.108Z,97.38
2023-07-05T01:02:09.093Z,97.17
2023-07-05T01:03:09.072Z,96.46
2023-07-05T01:04:09.038Z,96.15
2023-07-05T01:05:09.077Z,95.91
2023-07-05T01:06:08.921Z,96.26
2023-07-05T01:07:08.909Z,96.62
2023-07-05T01:08:08.908Z,96.42
2023-07-05T01:09:08.841Z,95.81
2023-07-05T01:10:08.976Z,95.61
2023-07-05T01:11:08.754Z,94.85
2023-07-05T01:12:08.731Z,94.74
2023-07-05T01:13:08.694Z,94.95
2023-07-05T01:14:08.738Z,93.68
2023-07-05T01:15:08.647Z,94.13
2023-07-05T01:16:08.598Z,93.38
2023-07-05T01:17:08.601Z,92.77
2023-07-05T01:18:08.655Z,92.47
2023-07-05T01:19:08.509Z,92.36
2023-07-05T01:20:08.526Z,92.32
2023-07-05T01:21:08.441Z,91.71
2023-07-05T01:22:08.423Z,91.20
2023-07-05T01:23:08.406Z,90.25
2023-07-05T01:24:08.361Z,90.20
2023-07-05T01:25:08.308Z,89.59
2023-07-05T01:26:08.352Z,89.80
2023-07-05T01:27:08.252Z,89.29
2023-07-05T01:28:08.321Z,89.15
2023-07-05T01:29:08.215Z,89.39
2023-07-05T01:30:08.189Z,88.89
2023-07-05T01:31:08.191Z,89.29
2023-07-05T01:32:08.101Z,89.25
2023-07-05T01:33:08.104Z,89.39
2023-07-05T01:34:08.113Z,88.78
2023-07-05T01:35:08.037Z,88.95
2023-07-05T01:36:08.007Z,89.15
2023-07-05T01:37:07.945Z,88.84
2023-07-05T01:38:07.938Z,88.44
2023-07-05T01:39:07.951Z,88.18
2023-07-05T01:40:07.874Z,88.28
2023-07-05T01:41:07.816Z,88.23
2023-07-05T01:42:07.803Z,87.52
2023-07-05T01:43:07.763Z,88.13
2023-07-05T01:44:07.777Z,87.52
2023-07-05T01:45:07.703Z,87.43
2023-07-05T01:46:07.689Z,87.22
2023-07-05T01:47:07.671Z,87.43
2023-07-05T01:48:07.614Z,87.12
2023-07-05T01:49:07.708Z,86.71
2023-07-05T01:50:07.547Z,87.08
2023-07-05T01:51:07.519Z,87.18
2023-07-05T01:52:07.486Z,86.68
2023-07-05T01:53:07.467Z,87.08
2023-07-05T01:54:07.470Z,86.68
2023-07-05T01:55:07.412Z,86.77
2023-07-05T01:56:07.354Z,87.08
2023-07-05T01:57:07.359Z,86.98
2023-07-05T01:58:07.291Z,86.77
2023-07-05T01:59:07.259Z,86.47
2023-07-05T02:00:07.280Z,86.68
2023-07-05T02:01:07.234Z,86.47
2023-07-05T02:02:07.217Z,86.57
2023-07-05T02:03:07.218Z,86.68
2023-07-05T02:04:07.105Z,87.18
2023-07-05T02:05:07.151Z,86.61
2023-07-05T02:06:07.047Z,86.71
2023-07-05T02:07:07.039Z,86.61
2023-07-05T02:08:07.005Z,86.71
2023-07-05T02:09:06.974Z,86.37
2023-07-05T02:10:06.979Z,86.68
2023-07-05T02:11:06.899Z,87.08
2023-07-05T02:12:06.868Z,86.57
2023-07-05T02:13:06.851Z,86.98
2023-07-05T02:14:06.811Z,87.02
2023-07-05T02:15:06.768Z,86.91
2023-07-05T02:16:06.793Z,86.51
2023-07-05T02:17:06.743Z,86.51
2023-07-05T02:18:06.781Z,86.41
2023-07-05T02:19:06.668Z,86.91
2023-07-05T02:20:06.702Z,87.12
2023-07-05T02:21:06.604Z,86.98
2023-07-05T02:22:06.622Z,86.91
2023-07-05T02:23:06.545Z,87.12
2023-07-05T02:24:06.505Z,87.22
2023-07-05T02:25:06.475Z,87.02
2023-07-05T02:26:06.438Z,86.41
2023-07-05T02:27:06.422Z,87.08
2023-07-05T02:28:06.456Z,87.43
2023-07-05T02:29:06.348Z,86.91
2023-07-05T02:30:06.380Z,87.32
2023-07-05T02:31:06.340Z,87.32
2023-07-05T02:32:06.252Z,87.02
2023-07-05T02:33:06.333Z,87.83
2023-07-05T02:34:06.245Z,87.37
2023-07-05T02:35:06.175Z,86.61
2023-07-05T02:36:06.144Z,87.16
2023-07-05T02:37:06.107Z,87.06
2023-07-05T02:38:06.074Z,87.67
2023-07-05T02:39:06.057Z,87.77
2023-07-05T02:40:06.094Z,87.46
2023-07-05T02:41:06.002Z,87.57
2023-07-05T02:42:06.048Z,88.28
2023-07-05T02:43:05.920Z,87.87
2023-07-05T02:44:05.958Z,88.48
2023-07-05T02:45:05.856Z,88.18
2023-07-05T02:46:05.859Z,88.18
2023-07-05T02:47:05.792Z,88.18
2023-07-05T02:48:05.811Z,88.48
2023-07-05T02:49:05.745Z,88.01
2023-07-05T02:50:05.769Z,88.52
2023-07-05T02:51:05.680Z,88.78
2023-07-05T02:52:05.648Z,88.42
2023-07-05T02:53:05.621Z,88.21
2023-07-05T02:54:05.589Z,88.01
2023-07-05T02:55:05.552Z,88.01
2023-07-05T02:56:05.593Z,88.38
2023-07-05T02:57:05.502Z,88.18
2023-07-05T02:58:05.536Z,88.01
2023-07-05T02:59:05.445Z,88.38
2023-07-05T03:00:05.394Z,87.37
2023-07-05T03:01:05.364Z,88.28
2023-07-05T03:02:05.449Z,88.28
2023-07-05T03:03:05.440Z,88.28
2023-07-05T03:04:05.363Z,87.87
2023-07-05T03:05:05.247Z,87.06
2023-07-05T03:06:05.238Z,86.86
2023-07-05T03:07:05.180Z,87.26
2023-07-05T03:08:05.164Z,87.12
2023-07-05T03:09:05.177Z,87.22
2023-07-05T03:10:05.109Z,86.82
2023-07-05T03:11:05.058Z,85.90
2023-07-05T03:12:05.020Z,85.80
2023-07-05T03:13:05.011Z,85.86
2023-07-05T03:14:05.099Z,85.96
2023-07-05T03:15:04.945Z,86.47
2023-07-05T03:16:04.910Z,85.86
2023-07-05T03:17:04.907Z,85.96
2023-07-05T03:18:04.878Z,85.86
2023-07-05T03:19:04.890Z,85.76
2023-07-05T03:20:04.781Z,85.15
2023-07-05T03:21:04.771Z,85.46
2023-07-05T03:22:04.722Z,84.85
2023-07-05T03:23:04.709Z,85.76
2023-07-05T03:24:04.677Z,85.56
2023-07-05T03:25:04.708Z,85.15
2023-07-05T03:26:04.604Z,85.31
2023-07-05T03:27:04.566Z,84.81
2023-07-05T03:28:04.596Z,85.11
2023-07-05T03:29:04.526Z,85.01
2023-07-05T03:30:04.620Z,84.41
2023-07-05T03:31:04.534Z,84.41
2023-07-05T03:32:04.458Z,84.36
2023-07-05T03:33:04.483Z,84.36
2023-07-05T03:34:04.348Z,84.27
2023-07-05T03:35:04.404Z,83.76
2023-07-05T03:36:04.306Z,84.06
2023-07-05T03:37:04.326Z,83.45
2023-07-05T03:38:04.246Z,83.51
2023-07-05T03:39:04.209Z,83.65
2023-07-05T03:40:04.220Z,83.41
2023-07-05T03:41:04.216Z,83.41
2023-07-05T03:42:04.114Z,83.31
2023-07-05T03:43:04.092Z,82.70
2023-07-05T03:44:04.058Z,81.96
2023-07-05T03:45:04.029Z,82.16
2023-07-05T03:46:04.194Z,81.65
2023-07-05T03:47:03.968Z,81.65
2023-07-05T03:48:03.966Z,81.55
2023-07-05T03:49:06.851Z,81.51
2023-07-05T03:50:03.883Z,81.41
2023-07-05T03:51:03.848Z,80.74
2023-07-05T03:52:03.880Z,80.80
2023-07-05T03:53:03.814Z,80.71
2023-07-05T03:54:03.751Z,80.80
2023-07-05T03:55:03.739Z,80.30
2023-07-05T03:56:03.699Z,81.07
2023-07-05T03:57:03.833Z,80.66
2023-07-05T03:58:03.630Z,79.96
2023-07-05T03:59:03.610Z,79.96
2023-07-05T04:00:03.571Z,79.96
2023-07-05T04:01:03.556Z,80.06
2023-07-05T04:02:03.541Z,79.32
2023-07-05T04:03:03.601Z,79.11
2023-07-05T04:04:03.508Z,78.91
2023-07-05T04:05:03.417Z,79.11
2023-07-05T04:06:03.392Z,78.71
2023-07-05T04:07:03.496Z,79.11
2023-07-05T04:08:03.360Z,78.57
2023-07-05T04:09:03.322Z,78.17
2023-07-05T04:10:03.277Z,77.66
2023-07-05T04:11:03.242Z,78.37
2023-07-05T04:12:03.294Z,77.66
2023-07-05T04:13:03.187Z,77.86
2023-07-05T04:14:03.274Z,77.76
2023-07-05T04:15:03.121Z,78.06
2023-07-05T04:16:03.138Z,77.76
2023-07-05T04:17:03.187Z,77.86
2023-07-05T04:18:03.093Z,78.27
2023-07-05T04:19:03.052Z,77.86
2023-07-05T04:20:02.996Z,77.73
2023-07-05T04:21:02.996Z,77.12
2023-07-05T04:22:02.918Z,77.59
2023-07-05T04:23:03.086Z,77.19
2023-07-05T04:24:02.856Z,76.88
2023-07-05T04:25:02.872Z,76.58
2023-07-05T04:26:02.862Z,76.24
2023-07-05T04:27:02.820Z,76.24
2023-07-05T04:28:02.744Z,76.34
2023-07-05T04:29:02.794Z,75.23
2023-07-05T04:30:02.682Z,75.63
2023-07-05T04:31:02.710Z,75.90
2023-07-05T04:32:02.640Z,75.50
2023-07-05T04:33:02.715Z,74.99
2023-07-05T04:34:02.642Z,74.90
2023-07-05T04:35:02.594Z,75.30
2023-07-05T04:36:02.531Z,75.06
2023-07-05T04:37:02.503Z,74.76
2023-07-05T04:38:02.480Z,74.86
2023-07-05T04:39:02.495Z,74.66
2023-07-05T04:40:03.479Z,74.86
2023-07-05T04:41:02.389Z,74.76
2023-07-05T04:42:02.412Z,74.66
2023-07-05T04:43:02.340Z,74.96
2023-07-05T04:44:02.371Z,75.10
2023-07-05T04:45:02.249Z,74.90
2023-07-05T04:46:02.282Z,74.99
2023-07-05T04:47:02.192Z,75.10
2023-07-05T04:48:02.213Z,75.40
2023-07-05T04:49:02.188Z,75.20
2023-07-05T04:50:02.114Z,75.60
2023-07-05T04:51:02.082Z,75.50
2023-07-05T04:52:02.058Z,75.20
2023-07-05T04:53:02.023Z,74.90
2023-07-05T04:54:02.112Z,75.20
2023-07-05T04:55:01.979Z,75.20
2023-07-05T04:56:01.951Z,75.20
2023-07-05T04:57:01.904Z,75.80
2023-07-05T04:58:01.898Z,75.50
2023-07-05T04:59:01.852Z,75.30
2023-07-05T05:00:01.979Z,75.30
2023-07-05T05:01:01.892Z,75.20
2023-07-05T05:02:02.021Z,74.90
2023-07-05T05:03:01.756Z,74.90
2023-07-05T05:04:01.746Z,74.66
2023-07-05T05:05:01.689Z,74.99
2023-07-05T05:06:01.709Z,75.26
2023-07-05T05:07:01.628Z,74.86
2023-07-05T05:08:01.604Z,74.96
2023-07-05T05:09:01.567Z,75.06
2023-07-05T05:10:01.543Z,74.96
2023-07-05T05:11:01.632Z,74.15
2023-07-05T05:12:01.481Z,74.12
2023-07-05T05:13:01.459Z,74.82
2023-07-05T05:14:01.535Z,74.82
2023-07-05T05:15:01.391Z,74.93
2023-07-05T05:16:01.469Z,74.62
2023-07-05T05:17:01.405Z,74.73
2023-07-05T05:18:01.408Z,74.93
2023-07-05T05:19:01.287Z,74.93
2023-07-05T05:20:01.260Z,74.73
2023-07-05T05:21:01.225Z,74.02
2023-07-05T05:22:01.296Z,74.82
2023-07-05T05:23:01.179Z,74.02
2023-07-05T05:24:01.226Z,74.02
2023-07-05T05:25:01.143Z,73.82
2023-07-05T05:26:01.136Z,74.93
2023-07-05T05:27:01.061Z,74.62
2023-07-05T05:28:01.128Z,73.88
2023-07-05T05:29:00.997Z,73.78
2023-07-05T05:30:07.395Z,73.85
2023-07-05T05:31:00.979Z,73.35
2023-07-05T05:32:00.933Z,73.35
2023-07-05T05:33:00.923Z,72.94
2023-07-05T05:34:00.910Z,72.84
2023-07-05T05:35:00.833Z,72.94
2023-07-05T05:36:00.809Z,73.11
2023-07-05T05:37:00.776Z,73.11
2023-07-05T05:38:00.749Z,72.91
2023-07-05T05:39:00.710Z,72.61
2023-07-05T05:40:00.760Z,72.97
2023-07-05T05:41:00.698Z,72.47
2023-07-05T05:42:00.630Z,72.57
2023-07-05T05:43:00.604Z,72.57
2023-07-05T05:44:00.584Z,72.97
2023-07-05T05:45:00.560Z,71.16
2023-07-05T05:46:00.631Z,71.73
2023-07-05T05:47:00.585Z,71.53
2023-07-05T05:48:00.495Z,71.03
2023-07-05T05:49:00.455Z,71.23
2023-07-05T05:50:00.404Z,70.83
2023-07-05T05:51:00.386Z,70.93
2023-07-05T05:52:00.406Z,71.30
2023-07-05T05:53:00.345Z,70.50
2023-07-05T05:54:00.304Z,70.19
2023-07-05T05:55:00.280Z,69.69
2023-07-05T05:56:00.256Z,70.06
2023-07-05T05:57:00.223Z,69.59
2023-07-05T05:58:00.277Z,69.69
2023-07-05T05:59:00.171Z,70.09
2023-07-05T06:00:00.168Z,70.39
2023-07-05T06:01:00.117Z,70.19
2023-07-05T06:02:00.105Z,69.99
2023-07-05T06:03:00.141Z,69.56
2023-07-05T06:04:00.099Z,69.89
2023-07-05T06:05:00.024Z,69.99
2023-07-05T06:05:59.975Z,69.59
2023-07-05T06:06:59.943Z,69.49
2023-07-05T06:07:59.921Z,69.79
2023-07-05T06:08:59.940Z,69.69
2023-07-05T06:10:00.023Z,69.26
2023-07-05T06:10:59.836Z,69.46
2023-07-05T06:11:59.818Z,69.56
2023-07-05T06:12:59.796Z,69.49
2023-07-05T06:14:00.580Z,69.59
2023-07-05T06:14:59.738Z,69.69
2023-07-05T06:16:12.057Z,69.59
2023-07-05T06:16:59.712Z,70.29
2023-07-05T06:17:59.714Z,70.09
2023-07-05T06:18:59.621Z,70.16
2023-07-05T06:19:59.656Z,69.89
2023-07-05T06:20:59.699Z,69.49
2023-07-05T06:21:59.539Z,69.56
2023-07-05T06:22:59.511Z,70.06
2023-07-05T06:23:59.500Z,69.56
2023-07-05T06:24:59.529Z,69.56
2023-07-05T06:25:59.509Z,69.22
2023-07-05T06:26:59.414Z,69.32
2023-07-05T06:27:59.373Z,68.72
2023-07-05T06:28:59.364Z,68.72
2023-07-05T06:29:59.329Z,68.82
2023-07-05T06:30:59.393Z,68.32
2023-07-05T06:31:59.268Z,68.92
2023-07-05T06:32:59.270Z,68.72
2023-07-05T06:33:59.271Z,68.72
2023-07-05T06:34:59.336Z,68.52
2023-07-05T06:35:59.158Z,68.52
2023-07-05T06:36:59.189Z,68.92
2023-07-05T06:37:59.116Z,68.42
2023-07-05T06:38:59.082Z,68.52
2023-07-05T06:39:59.091Z,68.42
2023-07-05T06:40:59.066Z,68.82
2023-07-05T06:41:59.003Z,68.72
2023-07-05T06:42:59.024Z,68.52
2023-07-05T06:43:58.949Z,68.72
2023-07-05T06:44:58.924Z,68.82
2023-07-05T06:45:58.910Z,68.99
2023-07-05T06:46:58.922Z,68.89
2023-07-05T06:47:58.918Z,68.65
2023-07-05T06:48:58.830Z,67.96
2023-07-05T06:49:58.787Z,67.65
2023-07-05T06:50:58.761Z,67.42
2023-07-05T06:51:58.748Z,67.29
2023-07-05T06:53:16.585Z,66.86
2023-07-05T06:53:58.678Z,66.46
2023-07-05T06:54:58.649Z,65.72
2023-07-05T06:55:58.625Z,64.89
2023-07-05T06:56:58.637Z,64.89
2023-07-05T06:57:58.581Z,64.56
2023-07-05T06:58:58.595Z,64.93
2023-07-05T06:59:58.519Z,64.40
2023-07-05T07:00:58.503Z,63.90
2023-07-05T07:01:58.511Z,63.27
2023-07-05T07:02:58.490Z,62.04
2023-07-05T07:03:58.455Z,62.31
2023-07-05T07:04:58.464Z,62.41
2023-07-05T07:05:58.375Z,62.18
2023-07-05T07:06:58.347Z,61.58
2023-07-05T07:07:58.339Z,61.69
2023-07-05T07:08:58.293Z,62.48
2023-07-05T07:09:58.276Z,61.96
2023-07-05T07:10:58.300Z,61.13
2023-07-05T07:11:58.230Z,60.73
2023-07-05T07:12:58.198Z,60.93
2023-07-05T07:13:58.209Z,60.83
2023-07-05T07:14:58.148Z,61.72
2023-07-05T07:15:58.161Z,61.76
2023-07-05T07:16:58.154Z,61.85
2023-07-05T07:17:58.097Z,61.46
2023-07-05T07:18:58.074Z,61.25
2023-07-05T07:19:58.032Z,62.15
2023-07-05T07:20:58.028Z,61.85
2023-07-05T07:21:58.046Z,62.23
2023-07-05T07:22:57.988Z,62.02
2023-07-05T07:23:58.010Z,62.02
2023-07-05T07:24:57.908Z,61.83
2023-07-05T07:25:57.935Z,61.40
2023-07-05T07:26:57.942Z,61.20
2023-07-05T07:27:57.910Z,60.90
2023-07-05T07:28:57.809Z,61.00
2023-07-05T07:29:57.790Z,61.20
2023-07-05T07:30:57.787Z,60.90
2023-07-05T07:31:57.763Z,61.40
2023-07-05T07:32:57.767Z,62.29
2023-07-05T07:33:57.788Z,61.50
2023-07-05T07:34:57.677Z,61.80
2023-07-05T07:35:57.658Z,62.49
2023-07-05T07:36:57.629Z,63.92
2023-07-05T07:37:57.619Z,63.45
2023-07-05T07:38:57.583Z,63.88
2023-07-05T07:39:57.628Z,64.07
2023-07-05T07:40:57.566Z,64.18
2023-07-05T07:41:57.510Z,64.51
2023-07-05T07:42:57.506Z,64.41
2023-07-05T07:43:57.479Z,63.71
2023-07-05T07:44:57.446Z,64.01
2023-07-05T07:45:57.495Z,64.48
2023-07-05T07:46:57.403Z,63.88
2023-07-05T07:47:57.401Z,64.37
2023-07-05T07:48:57.356Z,64.28
2023-07-05T07:49:57.338Z,64.67
2023-07-05T07:50:57.373Z,65.67
2023-07-05T07:51:57.346Z,65.47
2023-07-05T07:52:57.258Z,64.87
2023-07-05T07:53:57.243Z,63.85
2023-07-05T07:54:57.219Z,64.87
2023-07-05T07:55:57.182Z,65.05
2023-07-05T07:56:57.170Z,65.05
2023-07-05T07:57:57.265Z,64.15
2023-07-05T07:58:57.136Z,64.34
2023-07-05T07:59:57.099Z,64.25
2023-07-05T08:00:57.185Z,64.34
2023-07-05T08:01:57.066Z,65.54
2023-07-05T08:02:57.541Z,65.84
2023-07-05T08:03:57.185Z,64.94
2023-07-05T08:04:57.124Z,64.07
2023-07-05T08:05:56.957Z,64.18
2023-07-05T08:06:56.926Z,65.08
2023-07-05T08:07:56.928Z,64.90
2023-07-05T08:08:56.875Z,65.80
2023-07-05T08:09:56.908Z,66.80
2023-07-05T08:10:56.935Z,66.53
2023-07-05T08:11:56.808Z,65.83
2023-07-05T08:12:56.785Z,66.43
2023-07-05T08:13:56.848Z,66.40
2023-07-05T08:14:56.756Z,66.40
2023-07-05T08:15:56.826Z,66.93
2023-07-05T08:16:56.696Z,66.10
2023-07-05T08:17:56.744Z,65.91
2023-07-05T08:18:56.635Z,65.70
2023-07-05T08:19:56.621Z,66.10
2023-07-05T08:20:56.712Z,65.70
2023-07-05T08:21:56.621Z,66.00
2023-07-05T08:22:56.560Z,65.31
2023-07-05T08:23:56.645Z,65.77
2023-07-05T08:24:56.492Z,64.87
2023-07-05T08:25:56.472Z,65.67
2023-07-05T08:26:56.513Z,64.28
2023-07-05T08:27:56.485Z,64.54
2023-07-05T08:28:56.401Z,63.75
2023-07-05T08:29:56.386Z,63.72
2023-07-05T08:30:56.717Z,63.82
2023-07-05T08:31:56.417Z,63.19
2023-07-05T08:32:56.408Z,62.19
2023-07-05T08:33:56.429Z,62.46
2023-07-05T08:34:56.261Z,62.40
2023-07-05T08:35:56.255Z,62.26
2023-07-05T08:36:56.220Z,62.07
2023-07-05T08:37:56.203Z,62.19
2023-07-05T08:38:56.215Z,62.29
2023-07-05T08:39:56.207Z,63.49
2023-07-05T08:40:56.205Z,62.23
2023-07-05T08:41:56.096Z,63.52
2023-07-05T08:42:56.091Z,63.32
2023-07-05T08:43:56.056Z,64.12
2023-07-05T08:44:56.022Z,64.04
2023-07-05T08:45:56.095Z,64.64
2023-07-05T08:46:56.118Z,64.04
2023-07-05T08:47:56.012Z,64.34
2023-07-05T08:48:55.938Z,65.77
2023-07-05T08:49:55.906Z,64.87
2023-07-05T08:51:13.312Z,65.17
2023-07-05T08:51:55.997Z,65.54
2023-07-05T08:52:55.844Z,64.84
2023-07-05T08:53:55.805Z,63.95
2023-07-05T08:54:55.794Z,64.45
2023-07-05T08:55:55.762Z,64.34
2023-07-05T08:56:55.754Z,63.82
2023-07-05T08:57:55.776Z,63.35
2023-07-05T08:58:55.699Z,64.25
2023-07-05T08:59:55.664Z,64.22
2023-07-05T09:00:55.839Z,63.62
2023-07-05T09:01:55.824Z,63.79
2023-07-05T09:02:55.631Z,64.58
2023-07-05T09:03:55.720Z,63.59
2023-07-05T09:04:55.556Z,64.18
2023-07-05T09:05:55.534Z,63.56
2023-07-05T09:06:55.504Z,62.86
2023-07-05T09:07:55.503Z,61.83
2023-07-05T09:08:55.475Z,62.13
2023-07-05T09:09:55.476Z,60.64
2023-07-05T09:10:55.777Z,61.91
2023-07-05T09:11:55.392Z,61.61
2023-07-05T09:12:55.483Z,61.08
2023-07-05T09:13:55.451Z,61.98
2023-07-05T09:14:55.328Z,60.69
2023-07-05T09:15:55.295Z,60.09
2023-07-05T09:16:55.303Z,60.56
2023-07-05T09:17:55.353Z,60.75
2023-07-05T09:18:55.224Z,59.96
2023-07-05T09:19:55.210Z,59.47
2023-07-05T09:20:55.472Z,59.34
2023-07-05T09:21:55.234Z,60.20
2023-07-05T09:22:55.198Z,59.31
2023-07-05T09:23:55.163Z,59.61
2023-07-05T09:24:55.088Z,59.08
2023-07-05T09:25:56.235Z,58.26
2023-07-05T09:26:55.046Z,58.03
2023-07-05T09:27:55.089Z,58.53
2023-07-05T09:28:54.993Z,56.62
2023-07-05T09:29:54.980Z,56.52
2023-07-05T09:30:54.993Z,58.01
2023-07-05T09:31:54.919Z,58.86
2023-07-05T09:32:54.956Z,57.37
2023-07-05T09:33:54.951Z,58.36
2023-07-05T09:34:54.867Z,58.13
2023-07-05T09:35:55.069Z,57.44
2023-07-05T09:36:54.866Z,57.76
2023-07-05T09:37:54.815Z,59.15
2023-07-05T09:38:54.789Z,58.95
2023-07-05T09:39:54.824Z,58.56
2023-07-05T09:40:54.742Z,58.63
2023-07-05T09:41:54.716Z,58.03
2023-07-05T09:42:54.749Z,57.51
2023-07-05T09:43:54.678Z,57.61
2023-07-05T09:44:54.658Z,57.74
2023-07-05T09:45:54.976Z,58.43
2023-07-05T09:46:54.652Z,58.73
2023-07-05T09:47:54.680Z,58.92
2023-07-05T09:48:54.680Z,58.43
2023-07-05T09:50:03.911Z,58.30
2023-07-05T09:50:54.514Z,58.37
2023-07-05T09:51:54.485Z,57.85
2023-07-05T09:52:54.470Z,56.37
2023-07-05T09:53:54.507Z,56.04
2023-07-05T09:54:54.428Z,56.54
2023-07-05T09:55:54.556Z,55.94
2023-07-05T09:56:55.822Z,56.86
2023-07-05T09:57:54.472Z,56.54
2023-07-05T09:58:54.553Z,56.31
2023-07-05T09:59:54.342Z,58.39
2023-07-05T10:00:54.306Z,56.31
2023-07-05T10:01:54.322Z,56.31
2023-07-05T10:02:54.390Z,57.20
2023-07-05T10:03:54.363Z,58.72
2023-07-05T10:04:54.298Z,59.33
2023-07-05T10:05:54.475Z,58.77
2023-07-05T10:06:54.197Z,58.20
2023-07-05T10:07:54.286Z,58.80
2023-07-05T10:08:54.217Z,58.11
2023-07-05T10:09:54.114Z,57.48
2023-07-05T10:10:54.102Z,58.37
2023-07-05T10:11:54.114Z,57.46
2023-07-05T10:12:54.092Z,60.06
2023-07-05T10:13:54.056Z,57.46
2023-07-05T10:14:54.070Z,58.94
2023-07-05T10:15:54.235Z,58.45
2023-07-05T10:16:54.008Z,58.91
2023-07-05T10:17:54.145Z,57.73
2023-07-05T10:18:53.933Z,58.51
2023-07-05T10:19:53.915Z,57.46
2023-07-05T10:20:53.965Z,57.85
2023-07-05T10:21:53.885Z,58.47
2023-07-05T10:22:53.859Z,58.94
2023-07-05T10:23:53.834Z,58.74
2023-07-05T10:24:53.819Z,60.72
2023-07-05T10:25:54.107Z,59.53
2023-07-05T10:26:53.832Z,58.34
2023-07-05T10:27:53.764Z,59.56
2023-07-05T10:28:53.735Z,58.87
2023-07-05T10:29:53.714Z,60.25
2023-07-05T10:30:53.733Z,59.27
2023-07-05T10:31:53.724Z,59.73
2023-07-05T10:32:53.732Z,58.64
2023-07-05T10:33:53.655Z,58.81
2023-07-05T10:34:53.623Z,58.51
2023-07-05T10:35:53.839Z,58.12
2023-07-05T10:36:53.624Z,57.70
2023-07-05T10:37:53.561Z,59.67
2023-07-05T10:38:53.599Z,59.77
2023-07-05T10:39:53.521Z,59.70
2023-07-05T10:40:53.570Z,59.53
2023-07-05T10:41:53.469Z,59.66
2023-07-05T10:42:54.334Z,60.28
2023-07-05T10:43:53.432Z,60.51
2023-07-05T10:44:53.448Z,62.12
2023-07-05T10:45:53.677Z,61.93
2023-07-05T10:46:53.431Z,62.02
2023-07-05T10:47:53.636Z,62.82
2023-07-05T10:48:53.316Z,61.43
2023-07-05T10:49:53.317Z,63.21
2023-07-05T10:50:53.490Z,61.93
2023-07-05T10:51:53.254Z,62.99
2023-07-05T10:52:53.304Z,61.40
2023-07-05T10:53:53.216Z,61.90
2023-07-05T10:54:53.224Z,61.90
2023-07-05T10:55:53.379Z,61.77
2023-07-05T10:56:53.156Z,61.77
2023-07-05T10:57:53.130Z,60.65
2023-07-05T10:58:53.202Z,60.82
2023-07-05T10:59:53.093Z,59.70
2023-07-05T11:00:53.237Z,60.30
2023-07-05T11:01:53.112Z,60.66
2023-07-05T11:02:53.057Z,60.76
2023-07-05T11:03:53.022Z,60.30
2023-07-05T11:04:53.096Z,60.36
2023-07-05T11:05:53.033Z,61.78
2023-07-05T11:06:52.959Z,61.68
2023-07-05T11:07:52.926Z,60.27
2023-07-05T11:08:52.901Z,60.73
2023-07-05T11:09:52.913Z,60.53
2023-07-05T11:10:53.283Z,59.55
2023-07-05T11:11:52.840Z,60.36
2023-07-05T11:12:52.822Z,58.69
2023-07-05T11:13:52.883Z,59.74
2023-07-05T11:14:52.785Z,58.88
2023-07-05T11:15:54.250Z,59.84
2023-07-05T11:16:52.824Z,58.86
2023-07-05T11:17:52.741Z,58.33
2023-07-05T11:18:52.701Z,60.11
2023-07-05T11:19:52.692Z,60.11
2023-07-05T11:20:52.858Z,59.52
2023-07-05T11:21:52.631Z,59.02
2023-07-05T11:22:52.727Z,59.02
2023-07-05T11:23:52.602Z,59.19
2023-07-05T11:24:52.577Z,60.31
2023-07-05T11:25:52.556Z,59.52
2023-07-05T11:26:52.539Z,58.92
2023-07-05T11:27:52.564Z,59.25
2023-07-05T11:28:52.503Z,59.64
2023-07-05T11:29:52.510Z,59.58
2023-07-05T11:30:52.490Z,59.64
2023-07-05T11:31:52.473Z,59.94
2023-07-05T11:32:52.442Z,59.38
2023-07-05T11:33:52.479Z,59.58
2023-07-05T11:34:52.392Z,60.63
2023-07-05T11:35:52.355Z,59.94
2023-07-05T11:36:52.339Z,59.42
2023-07-05T11:37:52.322Z,58.60
2023-07-05T11:38:52.300Z,58.70
2023-07-05T11:39:52.347Z,58.20
2023-07-05T11:40:52.261Z,58.63
2023-07-05T11:41:52.235Z,58.70
2023-07-05T11:42:52.220Z,58.43
2023-07-05T11:43:52.203Z,58.73
2023-07-05T11:44:52.188Z,58.23
2023-07-05T11:45:52.224Z,58.33
2023-07-05T11:46:52.139Z,58.30
2023-07-05T11:47:52.155Z,58.20
2023-07-05T11:48:52.109Z,58.70
2023-07-05T11:49:52.088Z,58.73
2023-07-05T11:50:52.136Z,59.42
2023-07-05T11:51:52.094Z,58.43
2023-07-05T11:52:52.035Z,59.32
2023-07-05T11:53:52.007Z,59.78
2023-07-05T11:54:51.980Z,59.59
2023-07-05T11:55:51.968Z,59.46
2023-07-05T11:56:51.952Z,59.46
2023-07-05T11:57:51.979Z,59.39
2023-07-05T11:58:51.913Z,58.01
2023-07-05T11:59:51.911Z,60.18
2023-07-05T12:00:51.908Z,58.73
2023-07-05T12:01:51.905Z,58.73
2023-07-05T12:02:51.872Z,58.56
2023-07-05T12:03:51.926Z,59.45
2023-07-05T12:04:51.791Z,59.58
2023-07-05T12:05:51.806Z,60.17
2023-07-05T12:06:51.754Z,59.97
2023-07-05T12:07:51.749Z,60.46
2023-07-05T12:08:51.714Z,60.56
2023-07-05T12:09:51.751Z,60.07
2023-07-05T12:10:51.681Z,59.47
2023-07-05T12:11:51.670Z,60.83
2023-07-05T12:12:51.663Z,60.04
2023-07-05T12:13:51.629Z,59.55
2023-07-05T12:14:51.602Z,60.01
2023-07-05T12:15:51.681Z,59.19
2023-07-05T12:16:51.554Z,59.88
2023-07-05T12:17:51.570Z,58.40
2023-07-05T12:18:51.528Z,58.83
2023-07-05T12:19:51.493Z,58.33
2023-07-05T12:20:51.525Z,58.43
2023-07-05T12:21:51.519Z,58.92
2023-07-05T12:22:51.444Z,58.73
2023-07-05T12:23:51.412Z,58.60
2023-07-05T12:24:51.396Z,58.50
2023-07-05T12:25:51.395Z,57.91
2023-07-05T12:26:51.368Z,58.20
2023-07-05T12:27:51.398Z,58.40
2023-07-05T12:28:51.319Z,58.30
2023-07-05T12:29:51.306Z,58.18
2023-07-05T12:30:51.304Z,57.49
2023-07-05T12:31:51.347Z,58.15
2023-07-05T12:32:51.285Z,57.19
2023-07-05T12:33:51.277Z,57.12
2023-07-05T12:34:51.200Z,58.01
2023-07-05T12:35:51.278Z,58.40
2023-07-05T12:36:51.176Z,57.71
2023-07-05T12:37:51.145Z,58.14
2023-07-05T12:38:51.199Z,58.46
2023-07-05T12:39:51.109Z,58.88
2023-07-05T12:40:51.115Z,59.73
2023-07-05T12:41:51.068Z,60.19
2023-07-05T12:42:51.040Z,61.43
2023-07-05T12:43:51.068Z,60.77
2023-07-05T12:44:51.006Z,61.52
2023-07-05T12:45:50.978Z,61.85
2023-07-05T12:46:51.021Z,63.00
2023-07-05T12:47:50.999Z,63.70
2023-07-05T12:48:50.920Z,63.92
2023-07-05T12:49:50.947Z,64.22
2023-07-05T12:50:50.871Z,64.19
2023-07-05T12:51:50.879Z,64.29